Time;durP1;ratioP1;P1;durP2;ratioP2;P2;SDS_P1;SDS_P2;PMS_P1;PMS_P2;Temp;Humidity;BMP_temperature;BMP_pressure;BME280_temperature;BME280_humidity;BME280_pressure;Samples;Min_cycle;Max_cycle;Signal;HPM_P1;HPM_P2
2021/06/12 00:04:27;;;;;;;2.17;2.07;;;;;;;19.27;100.00;102080.53;1913440;73;39571;-70
2021/06/12 00:09:52;;;;;;;2.97;2.50;;;;;;;19.23;100.00;102082.88;1798752;79;86378;-70
2021/06/12 00:15:20;;;;;;;3.43;2.23;;;;;;;19.10;100.00;102086.80;1916202;73;39702;-74
2021/06/12 00:20:45;;;;;;;2.27;2.07;;;;;;;19.06;100.00;102081.53;1837501;77;86321;-71
2021/06/12 00:26:09;;;;;;;2.30;2.10;;;;;;;18.92;100.00;102082.09;1946956;73;39526;-75
2021/06/12 00:31:34;;;;;;;2.43;2.13;;;;;;;18.87;100.00;102082.19;1877120;75;86513;-73
2021/06/12 00:36:58;;;;;;;2.60;2.40;;;;;;;18.76;100.00;102085.52;1943913;71;85570;-73
2021/06/12 00:42:28;;;;;;;3.23;2.80;;;;;;;18.67;100.00;102085.39;1931504;72;39407;-70
2021/06/12 00:47:55;;;;;;;2.53;2.33;;;;;;;18.45;100.00;102083.79;1947484;71;86587;-73
2021/06/12 00:53:36;;;;;;;3.13;2.37;;;;;;;18.39;100.00;102092.08;1944640;73;39595;-70
2021/06/12 00:58:52;;;;;;;2.70;2.50;;;;;;;18.31;100.00;102099.24;1784955;79;86363;-70
2021/06/12 01:04:20;;;;;;;2.33;2.13;;;;;;;17.97;100.00;102108.52;1945521;73;39591;-73
2021/06/12 01:09:44;;;;;;;2.43;2.23;;;;;;;17.93;100.00;102109.67;1869330;76;85653;-70
2021/06/12 01:15:18;;;;;;;2.87;2.60;;;;;;;17.63;100.00;102117.13;1920254;73;40379;-74
2021/06/12 01:21:12;;;;;;;3.03;2.60;;;;;;;17.46;100.00;102107.78;1837258;77;86429;-75
2021/06/12 01:27:40;;;;;;;3.97;2.77;;;;;;;17.88;100.00;102117.36;1946691;73;39726;-70
2021/06/12 01:33:12;;;;;;;3.63;3.23;;;;;;;17.65;100.00;102093.80;1937339;72;39477;-72
2021/06/12 01:38:43;;;;;;;3.70;3.40;;;;;;;17.35;100.00;102096.42;1877006;75;85805;-70
2021/06/12 01:44:10;;;;;;;3.87;2.93;;;;;;;17.33;100.00;102090.84;1920614;73;39783;-73
2021/06/12 01:49:35;;;;;;;4.20;3.23;;;;;;;17.00;100.00;102092.63;1891324;74;86415;-70
2021/06/12 01:55:03;;;;;;;3.13;2.83;;;;;;;17.19;100.00;102100.56;1939417;72;39657;-70
2021/06/12 02:00:29;;;;;;;3.30;3.00;;;;;;;17.01;100.00;102100.77;1910362;73;39494;-74
2021/06/12 02:05:56;;;;;;;3.13;2.80;;;;;;;17.21;100.00;102099.67;1841356;76;86671;-70
2021/06/12 02:11:22;;;;;;;3.43;2.93;;;;;;;17.26;100.00;102109.45;1944908;73;39556;-74
2021/06/12 02:16:47;;;;;;;3.80;3.27;;;;;;;17.32;100.00;102122.88;1869196;76;86289;-70
2021/06/12 02:22:12;;;;;;;3.67;3.33;;;;;;;17.25;100.00;102119.00;1946604;73;39580;-71
2021/06/12 02:27:37;;;;;;;3.73;3.30;;;;;;;17.18;100.00;102119.94;1876948;75;86284;-74
2021/06/12 02:33:06;;;;;;;4.33;3.93;;;;;;;17.13;100.00;102130.66;1906273;73;39498;-74
2021/06/12 02:38:31;;;;;;;4.90;4.13;;;;;;;17.07;100.00;102129.03;1943210;73;39505;-70
2021/06/12 02:43:55;;;;;;;4.13;3.70;;;;;;;16.84;100.00;102120.88;1838016;77;86919;-74
2021/06/12 02:49:21;;;;;;;5.03;3.70;;;;;;;16.52;100.00;102112.17;1945353;73;39546;-73
2021/06/12 02:54:51;;;;;;;4.53;3.90;;;;;;;16.53;100.00;102127.03;1837501;77;85725;-70
2021/06/12 03:00:24;;;;;;;4.77;3.60;;;;;;;16.43;100.00;102120.13;1929301;72;39407;-74
2021/06/12 03:05:52;;;;;;;4.33;3.83;;;;;;;16.63;100.00;102134.00;1837633;77;85538;-74
2021/06/12 03:11:19;;;;;;;5.27;3.80;;;;;;;16.70;100.00;102143.74;1931982;72;39456;-70
2021/06/12 03:16:46;;;;;;;4.73;3.57;;;;;;;16.75;100.00;102154.08;1837102;77;86621;-70
2021/06/12 03:22:12;;;;;;;5.00;3.80;;;;;;;16.72;100.00;102163.94;1902213;73;39699;-74
2021/06/12 03:27:38;;;;;;;4.40;4.00;;;;;;;16.65;100.00;102171.84;1876776;75;86582;-74
2021/06/12 03:33:11;;;;;;;4.47;3.80;;;;;;;16.54;100.00;102163.78;1902514;73;39692;-73
2021/06/12 03:38:36;;;;;;;5.27;4.30;;;;;;;16.45;100.00;102155.72;1876864;75;86546;-74
2021/06/12 03:44:03;;;;;;;6.40;4.53;;;;;;;16.42;100.00;102151.55;1925626;73;40384;-70
2021/06/12 03:49:28;;;;;;;4.63;3.93;;;;;;;16.45;100.00;102148.15;1911453;73;39609;-70
2021/06/12 03:54:54;;;;;;;4.80;4.00;;;;;;;16.16;100.00;102165.48;1776790;78;86666;-73
2021/06/12 04:00:20;;;;;;;5.17;4.47;;;;;;;16.19;100.00;102160.69;1894865;73;39586;-70
2021/06/12 04:05:44;;;;;;;5.30;4.57;;;;;;;16.22;100.00;102166.54;1837087;77;86237;-70
2021/06/12 04:11:09;;;;;;;5.67;4.47;;;;;;;16.24;100.00;102158.69;1947142;73;39511;-71
2021/06/12 04:16:34;;;;;;;5.33;4.00;;;;;;;16.09;100.00;102167.78;1891765;74;86338;-73
2021/06/12 04:21:59;;;;;;;6.17;4.70;;;;;;;16.03;100.00;102161.36;1838380;77;86465;-74
2021/06/12 04:27:23;;;;;;;5.20;4.43;;;;;;;15.86;100.00;102161.75;1928908;72;39514;-70
2021/06/12 04:32:48;;;;;;;5.53;4.20;;;;;;;15.85;100.00;102169.03;1869162;75;86368;-73
2021/06/12 04:38:13;;;;;;;5.47;4.37;;;;;;;16.04;100.00;102172.86;1946436;73;39573;-74
2021/06/12 04:43:37;;;;;;;5.90;4.97;;;;;;;16.11;100.00;102173.92;1891994;75;86397;-73
2021/06/12 04:49:00;;;;;;;6.33;4.60;;;;;;;16.20;100.00;102175.83;1838433;77;86381;-74
2021/06/12 04:54:24;;;;;;;6.33;5.10;;;;;;;16.20;100.00;102175.83;1944392;73;39748;-70
2021/06/12 04:59:48;;;;;;;5.90;4.20;;;;;;;16.32;100.00;102173.48;1875854;75;86613;-76
2021/06/12 05:05:13;;;;;;;5.50;4.63;;;;;;;16.32;100.00;102169.28;1919428;72;39598;-72
2021/06/12 05:10:38;;;;;;;5.00;4.50;;;;;;;16.27;100.00;102173.52;1876815;75;86800;-70
2021/06/12 05:16:04;;;;;;;7.13;5.17;;;;;;;16.27;100.00;102173.52;1924526;73;39819;-70
2021/06/12 05:21:31;;;;;;;8.30;4.70;;;;;;;16.28;100.00;102172.40;1943397;73;40338;-70
2021/06/12 05:26:55;;;;;;;6.00;4.70;;;;;;;16.38;100.00;102181.31;1833062;78;86445;-70
2021/06/12 05:32:20;;;;;;;6.17;4.50;;;;;;;16.51;100.00;102186.27;1942284;73;39499;-70
2021/06/12 05:37:45;;;;;;;6.57;4.70;;;;;;;16.55;100.00;102185.94;1837188;77;87010;-70
2021/06/12 05:43:13;;;;;;;6.43;5.10;;;;;;;16.56;100.00;102196.01;1947029;73;46485;-73
2021/06/12 05:48:36;;;;;;;8.67;5.40;;;;;;;16.58;100.00;102206.98;1881563;75;86690;-71
2021/06/12 05:54:01;;;;;;;6.53;5.20;;;;;;;16.64;100.00;102205.83;1949299;73;39673;-70
2021/06/12 05:59:25;;;;;;;10.07;5.30;;;;;;;16.73;100.00;102209.09;1913778;73;39644;-70
2021/06/12 06:04:49;;;;;;;7.50;5.67;;;;;;;16.74;100.00;102211.33;1868590;76;86196;-70
2021/06/12 06:10:15;;;;;;;6.40;5.47;;;;;;;16.75;100.00;102224.23;1917866;73;39606;-74
2021/06/12 06:15:40;;;;;;;9.23;5.60;;;;;;;16.79;100.00;102228.97;1892476;74;86316;-70
2021/06/12 06:21:04;;;;;;;7.40;5.87;;;;;;;16.95;100.00;102238.09;1948758;73;39820;-70
2021/06/12 06:26:29;;;;;;;8.73;6.50;;;;;;;16.91;100.00;102235.60;1943417;73;39464;-74
2021/06/12 06:31:54;;;;;;;9.20;6.30;;;;;;;16.95;100.00;102248.48;1798718;77;85755;-74
2021/06/12 06:37:21;;;;;;;8.43;6.00;;;;;;;16.99;100.00;102248.16;1921018;73;39684;-74
2021/06/12 06:42:46;;;;;;;8.87;6.07;;;;;;;17.07;100.00;102253.16;1869273;76;86544;-71
2021/06/12 06:48:13;;;;;;;10.13;7.00;;;;;;;17.16;100.00;102267.65;1936229;72;39544;-74
2021/06/12 06:53:37;;;;;;;11.10;6.93;;;;;;;17.27;100.00;102257.17;1877339;75;85761;-70
2021/06/12 06:59:01;;;;;;;10.70;7.10;;;;;;;17.27;100.00;102266.44;1949216;73;39702;-73
2021/06/12 07:04:25;;;;;;;9.80;7.17;;;;;;;17.36;100.00;102258.77;1944031;73;39517;-71
2021/06/12 07:09:52;;;;;;;6.93;6.17;;;;;;;17.46;100.00;102259.48;1777453;80;86294;-72
2021/06/12 07:12:24;;;;;;;10.27;7.07;;;;;;;17.51;100.00;102263.65;1719194;80;933507;-71
2021/06/12 07:17:49;;;;;;;9.87;7.37;;;;;;;17.70;100.00;102279.22;1837198;77;86186;-74
2021/06/12 07:23:15;;;;;;;10.30;7.30;;;;;;;17.76;100.00;102275.20;1946302;73;39402;-72
2021/06/12 07:28:39;;;;;;;9.97;7.20;;;;;;;17.79;100.00;102268.16;1877022;75;86779;-72
2021/06/12 07:34:04;;;;;;;13.37;8.20;;;;;;;17.84;100.00;102271.72;1948766;73;39625;-72
2021/06/12 07:39:29;;;;;;;9.17;7.43;;;;;;;18.15;100.00;102270.20;1910317;73;39737;-74
2021/06/12 07:44:54;;;;;;;10.63;7.27;;;;;;;18.61;100.00;102267.59;1782259;78;86561;-73
2021/06/12 07:50:18;;;;;;;8.53;7.17;;;;;;;18.80;100.00;102258.30;1945743;73;39819;-73
2021/06/12 07:55:42;;;;;;;10.77;7.20;;;;;;;18.91;100.00;102269.08;1783966;79;85436;-72
2021/06/12 08:01:10;;;;;;;9.70;7.40;;;;;;;19.31;100.00;102270.36;1947056;73;40322;-73
2021/06/12 08:06:37;;;;;;;9.90;7.27;;;;;;;19.67;100.00;102266.33;1877370;74;86449;-74
2021/06/12 08:12:02;;;;;;;8.57;6.83;;;;;;;19.59;100.00;102274.11;1949193;73;39663;-72
2021/06/12 08:17:26;;;;;;;10.03;6.87;;;;;;;20.13;100.00;102278.06;1943880;73;39553;-72
2021/06/12 08:22:51;;;;;;;9.23;6.23;;;;;;;20.03;100.00;102274.03;1943709;71;86183;-73
2021/06/12 08:28:16;;;;;;;7.60;5.83;;;;;;;20.74;100.00;102265.67;1922910;72;39867;-72
2021/06/12 08:33:40;;;;;;;7.37;5.77;;;;;;;21.25;100.00;102274.29;1876980;75;86166;-73
2021/06/12 08:39:06;;;;;;;8.60;6.33;;;;;;;20.81;100.00;102277.92;1923613;73;39503;-74
2021/06/12 08:44:31;;;;;;;9.20;5.77;;;;;;;21.23;100.00;102274.60;1943137;73;39602;-73
2021/06/12 08:49:55;;;;;;;9.57;5.87;;;;;;;21.91;100.00;102260.53;1946990;71;86247;-73
2021/06/12 08:55:22;;;;;;;7.67;5.37;;;;;;;22.03;100.00;102263.63;1930797;73;39724;-73
2021/06/12 09:00:48;;;;;;;7.80;5.87;;;;;;;22.11;100.00;102261.41;1867482;75;86661;-74
2021/06/12 09:06:23;;;;;;;5.40;4.90;;;;;;;21.82;100.00;102276.67;1886707;73;39723;-71
2021/06/12 09:14:35;;;;;;;9.13;5.73;;;;;;;21.82;100.00;102289.41;1915316;75;86663;-73
2021/06/12 09:17:07;;;;;;;9.97;5.60;;;;;;;21.22;100.00;102304.63;1866655;76;932495;-74
2021/06/12 09:19:43;;;;;;;8.20;5.57;;;;;;;21.27;100.00;102311.53;1820243;77;935749;-74
2021/06/12 09:22:13;;;;;;;8.70;5.50;;;;;;;21.49;100.00;102303.61;1787608;78;936744;-75
2021/06/12 09:27:38;;;;;;;8.37;5.30;;;;;;;;;;1876988;75;85604;-74
2021/06/12 09:33:05;;;;;;;8.03;5.07;;;;;;;21.73;100.00;102306.34;1939048;72;39426;-74
2021/06/12 09:38:33;;;;;;;7.43;5.03;;;;;;;21.87;100.00;102302.54;1929906;72;85872;-73
2021/06/12 09:43:58;;;;;;;7.73;4.77;;;;;;;22.50;100.00;102290.20;1873878;74;86674;-75
2021/06/12 09:49:37;;;;;;;6.20;3.87;;;;;;;22.41;100.00;102288.52;1943785;73;39481;-76
2021/06/12 09:55:09;;;;;;;9.43;4.63;;;;;;;22.23;100.00;102297.55;1923470;73;39704;-74
2021/06/12 10:00:47;;;;;;;5.67;4.37;;;;;;;22.04;100.00;102305.47;1891780;74;86225;-76
2021/06/12 10:06:18;;;;;;;6.77;3.97;;;;;;;22.10;100.00;102308.42;1935333;72;39515;-73
2021/06/12 10:11:51;;;;;;;6.33;3.43;;;;;;;22.89;100.00;102307.65;1825192;76;86548;-74
2021/06/12 10:17:17;;;;;;;5.65;3.25;;;;;;;22.99;100.00;102307.91;1946093;73;39630;-75
2021/06/12 10:22:45;;;;;;;6.93;3.00;;;;;;;22.48;100.00;102308.09;1867434;75;86449;-75
2021/06/12 10:28:11;;;;;;;5.95;3.17;;;;;;;23.15;100.00;102311.89;1935676;72;39794;-76
2021/06/12 10:33:45;;;;;;;6.25;2.87;;;;;;;22.62;100.00;102330.04;1897830;74;86794;-76
2021/06/12 10:39:28;;;;;;;5.30;2.98;;;;;;;22.88;100.00;102325.84;1935331;72;39547;-76
2021/06/12 10:45:15;;;;;;;5.65;2.87;;;;;;;22.62;100.00;102322.12;1946935;72;39559;-73
2021/06/12 10:50:45;;;;;;;3.40;2.10;;;;;;;22.98;100.00;102320.40;1877154;75;86796;-76
2021/06/12 10:56:33;;;;;;;4.40;2.47;;;;;;;22.65;100.00;102319.45;1945756;73;39482;-73
2021/06/12 11:02:07;;;;;;;4.13;2.70;;;;;;;22.34;100.00;102317.30;1777600;79;86343;-74
2021/06/12 11:07:42;;;;;;;3.10;2.30;;;;;;;22.17;100.00;102314.42;1876928;75;86576;-76
2021/06/12 11:13:23;;;;;;;6.73;2.60;;;;;;;22.36;100.00;102314.98;1898115;73;39722;-76
2021/06/12 11:19:17;;;;;;;3.60;2.27;;;;;;;22.42;100.00;102319.92;1837342;77;86450;-76
2021/06/12 11:22:23;;;;;;;3.25;2.52;;;;;;;22.43;100.00;102322.41;1798441;77;934569;-73
2021/06/12 11:27:50;;;;;;;4.42;2.37;;;;;;;22.64;100.00;102316.94;1867464;75;86445;-75
2021/06/12 11:33:19;;;;;;;6.28;3.25;;;;;;;22.72;100.00;102319.59;1915662;73;39676;-74
2021/06/12 11:38:49;;;;;;;4.23;2.00;;;;;;;23.04;100.00;102324.75;1832525;78;86165;-75
2021/06/12 11:44:13;;;;;;;5.42;2.95;;;;;;;23.14;100.00;102326.67;1946785;73;39722;-75
2021/06/12 11:49:38;;;;;;;6.47;2.02;;;;;;;23.02;100.00;102328.48;1873748;74;86350;-74
2021/06/12 11:55:16;;;;;;;3.33;2.27;;;;;;;23.30;100.00;102333.23;1949052;73;39487;-74
2021/06/12 12:00:44;;;;;;;4.10;2.80;;;;;;;23.34;100.00;102322.30;1902397;74;86852;-73
2021/06/12 12:06:12;;;;;;;5.83;2.17;;;;;;;23.22;100.00;102322.16;1920980;73;39488;-75
2021/06/12 12:11:40;;;;;;;4.97;2.33;;;;;;;23.38;100.00;102326.13;1876969;75;86273;-75
2021/06/12 12:17:05;;;;;;;12.53;10.88;;;;;;;23.28;100.00;102315.13;1949116;73;39743;-74
2021/06/12 12:22:37;;;;;;;13.85;11.48;;;;;;;23.39;100.00;102328.38;1943139;73;39613;-74
2021/06/12 12:28:09;;;;;;;17.62;14.93;;;;;;;23.44;100.00;102317.73;1948788;73;39579;-75
2021/06/12 12:33:45;;;;;;;4.87;3.72;;;;;;;23.35;100.00;102321.72;1877177;75;86536;-74
2021/06/12 12:39:10;;;;;;;15.38;13.78;;;;;;;23.37;100.00;102330.12;1920976;73;39544;-74
2021/06/12 12:44:34;;;;;;;13.58;12.23;;;;;;;23.51;100.00;102334.22;1876992;75;86559;-74
2021/06/12 12:49:58;;;;;;;4.10;3.05;;;;;;;23.54;100.00;102332.95;1752122;80;85937;-75
2021/06/12 12:55:24;;;;;;;2.47;1.60;;;;;;;23.44;100.00;102340.42;1914523;73;39577;-74
2021/06/12 13:00:48;;;;;;;3.37;2.87;;;;;;;23.47;100.00;102337.48;1837587;77;86588;-76
2021/06/12 13:06:32;;;;;;;4.00;1.72;;;;;;;23.62;100.00;102339.77;1946710;73;39589;-75
2021/06/12 13:12:14;;;;;;;5.90;5.10;;;;;;;23.72;100.00;102351.36;1948093;73;39513;-75
2021/06/12 13:17:43;;;;;;;4.95;3.40;;;;;;;23.74;100.00;102344.77;1867468;75;86147;-75
2021/06/12 13:23:22;;;;;;;4.45;3.15;;;;;;;23.73;100.00;102343.09;1936938;73;39502;-74
2021/06/12 13:29:20;;;;;;;5.20;2.85;;;;;;;23.73;100.00;102348.19;1919586;73;39633;-73
2021/06/12 13:34:44;;;;;;;6.00;3.00;;;;;;;23.68;100.00;102338.44;1868862;75;85567;-74
2021/06/12 13:40:14;;;;;;;3.92;2.10;;;;;;;23.84;100.00;102338.13;1902939;73;39576;-73
2021/06/12 13:45:41;;;;;;;3.27;2.30;;;;;;;23.79;100.00;102336.88;1880903;75;86716;-74
2021/06/12 13:51:05;;;;;;;2.95;1.60;;;;;;;23.81;100.00;102340.23;1948733;73;39515;-76
2021/06/12 13:56:30;;;;;;;2.45;1.50;;;;;;;23.87;100.00;102342.31;1943316;73;39572;-75
2021/06/12 14:01:54;;;;;;;2.60;1.60;;;;;;;23.89;100.00;102348.46;1954512;70;86887;-73
2021/06/12 14:07:19;;;;;;;2.37;1.50;;;;;;;24.00;100.00;102351.20;1945209;73;39522;-77
2021/06/12 14:12:44;;;;;;;3.27;1.60;;;;;;;23.87;100.00;102355.92;1837182;77;85589;-75
2021/06/12 14:18:10;;;;;;;3.27;1.65;;;;;;;23.38;100.00;102355.07;1925785;72;39627;-73
2021/06/12 14:23:37;;;;;;;5.50;1.60;;;;;;;23.79;100.00;102353.91;1877278;75;85596;-75
2021/06/12 14:29:03;;;;;;;3.17;1.70;;;;;;;24.03;100.00;102353.34;1949284;73;39678;-75
2021/06/12 14:34:27;;;;;;;1.95;1.50;;;;;;;23.84;100.00;102352.90;1943726;73;39489;-78
2021/06/12 14:39:52;;;;;;;4.53;1.82;;;;;;;23.87;100.00;102352.24;1825205;76;86242;-76
2021/06/12 14:45:17;;;;;;;4.22;1.80;;;;;;;23.89;100.00;102358.39;1919796;72;39886;-75
2021/06/12 14:50:40;;;;;;;3.47;1.67;;;;;;;24.05;100.00;102360.91;1876888;75;86665;-72
2021/06/12 14:56:05;;;;;;;3.80;1.52;;;;;;;24.13;100.00;102357.23;1938623;73;39578;-73
2021/06/12 15:01:32;;;;;;;3.70;1.80;;;;;;;24.11;100.00;102353.89;1942935;73;39427;-73
2021/06/12 15:06:57;;;;;;;3.40;1.35;;;;;;;23.98;100.00;102362.88;1874902;76;86249;-71
2021/06/12 15:12:21;;;;;;;1.40;1.30;;;;;;;24.24;100.00;102359.13;1930440;72;39845;-73
2021/06/12 15:17:45;;;;;;;2.65;1.70;;;;;;;24.22;100.00;102363.71;1837293;77;86275;-71
2021/06/12 15:23:11;;;;;;;3.52;1.60;;;;;;;24.34;100.00;102360.17;1946859;73;39646;-72
2021/06/12 15:28:35;;;;;;;4.37;1.90;;;;;;;24.27;100.00;102366.37;1877116;75;85381;-71
2021/06/12 15:33:59;;;;;;;5.10;1.90;;;;;;;24.15;100.00;102363.42;1827266;77;86619;-73
2021/06/12 15:39:24;;;;;;;4.35;1.67;;;;;;;24.11;100.00;102360.98;1944445;73;39685;-71
2021/06/12 15:44:48;;;;;;;3.12;1.60;;;;;;;24.09;100.00;102361.09;1837611;77;85741;-73
2021/06/12 15:50:13;;;;;;;1.92;1.50;;;;;;;24.13;100.00;102357.82;1946944;73;49005;-72
2021/06/12 15:55:40;;;;;;;4.25;2.30;;;;;;;24.13;100.00;102354.98;1876762;75;86324;-71
2021/06/12 16:01:04;;;;;;;5.60;1.77;;;;;;;24.12;100.00;102355.56;1847025;75;39571;-71
2021/06/12 16:06:29;;;;;;;3.62;2.00;;;;;;;24.04;100.00;102353.02;1943478;73;39453;-73
2021/06/12 16:11:53;;;;;;;3.50;2.15;;;;;;;23.98;100.00;102352.94;1859280;75;86545;-71
2021/06/12 16:17:17;;;;;;;2.55;1.72;;;;;;;24.06;100.00;102351.23;1916685;73;39686;-73
2021/06/12 16:22:44;;;;;;;3.27;1.70;;;;;;;23.86;100.00;102359.92;1837127;77;86139;-71
2021/06/12 16:28:12;;;;;;;2.02;1.82;;;;;;;24.05;100.00;102374.53;1936537;72;39460;-72
2021/06/12 16:33:38;;;;;;;4.28;2.20;;;;;;;24.02;100.00;102373.80;1876947;75;86856;-73
2021/06/12 16:39:05;;;;;;;3.15;1.95;;;;;;;24.12;100.00;102364.08;1921936;72;39689;-71
2021/06/12 16:44:29;;;;;;;6.35;2.00;;;;;;;24.18;100.00;102368.99;1943453;73;39483;-71
2021/06/12 16:49:58;;;;;;;3.30;2.08;;;;;;;24.15;100.00;102369.66;1784905;79;86296;-71
2021/06/12 16:55:30;;;;;;;2.70;1.90;;;;;;;24.10;100.00;102376.35;1894622;73;39694;-70
2021/06/12 17:00:56;;;;;;;4.17;2.08;;;;;;;24.14;100.00;102370.23;1838382;77;85526;-73
2021/06/12 17:06:22;;;;;;;1.50;1.40;;;;;;;23.98;100.00;102371.40;1945211;73;39510;-73
2021/06/12 17:11:50;;;;;;;6.17;2.20;;;;;;;24.12;100.00;102363.25;1832408;78;86511;-73
2021/06/12 17:17:14;;;;;;;3.70;1.80;;;;;;;24.15;100.00;102371.94;1935722;72;39837;-73
2021/06/12 17:22:38;;;;;;;6.20;2.25;;;;;;;23.86;100.00;102376.11;1877381;75;86108;-70
2021/06/12 17:30:59;;;;;;;2.98;1.80;;;;;;;23.85;100.00;102365.92;1964951;71;39477;-73
2021/06/12 17:33:31;;;;;;;2.95;1.90;;;;;;;23.84;100.00;102367.92;1868309;74;934869;-71
2021/06/12 17:36:07;;;;;;;4.15;2.35;;;;;;;23.73;100.00;102367.22;1880559;75;934608;-70
2021/06/12 17:38:34;;;;;;;5.62;2.55;;;;;;;23.72;100.00;102368.38;1879729;75;936573;-73
2021/06/12 17:41:04;;;;;;;2.25;1.80;;;;;;;23.94;100.00;102371.83;1880721;75;934663;-72
2021/06/12 17:43:34;;;;;;;3.62;2.00;;;;;;;24.13;100.00;102367.17;1880552;75;936652;-72
2021/06/12 17:48:58;;;;;;;4.35;2.10;;;;;;;24.13;100.00;102360.66;1838456;77;85152;-71
2021/06/12 17:54:24;;;;;;;2.22;1.90;;;;;;;23.93;100.00;102365.90;1914996;73;39747;-70
2021/06/12 17:59:48;;;;;;;3.30;1.75;;;;;;;23.83;100.00;102363.41;1832644;78;86743;-73
2021/06/12 18:05:13;;;;;;;4.33;2.08;;;;;;;23.85;100.00;102363.09;1946622;73;39668;-74
2021/06/12 18:10:39;;;;;;;3.42;2.10;;;;;;;23.84;100.00;102376.44;1876879;75;86542;-72
2021/06/12 18:16:05;;;;;;;2.80;2.25;;;;;;;23.56;100.00;102384.53;1948829;73;39625;-72
2021/06/12 18:21:29;;;;;;;2.27;1.80;;;;;;;23.37;100.00;102388.84;1911973;73;39811;-72
2021/06/12 18:26:54;;;;;;;3.33;2.12;;;;;;;23.52;100.00;102388.38;1785048;79;85821;-73
2021/06/12 18:32:18;;;;;;;3.62;2.12;;;;;;;23.50;100.00;102402.05;1916274;73;39429;-74
2021/06/12 18:37:46;;;;;;;2.87;1.90;;;;;;;23.12;100.00;102409.80;1832133;77;85795;-72
2021/06/12 18:43:14;;;;;;;2.12;1.80;;;;;;;22.85;100.00;102408.66;1902041;73;39530;-73
2021/06/12 18:48:37;;;;;;;2.15;1.72;;;;;;;22.90;100.00;102415.59;1881804;75;85784;-74
2021/06/12 18:54:01;;;;;;;2.73;1.67;;;;;;;22.84;100.00;102422.61;1949296;73;39776;-72
2021/06/12 18:59:26;;;;;;;2.22;1.75;;;;;;;22.58;100.00;102420.25;1928188;72;39595;-71
2021/06/12 19:04:50;;;;;;;2.40;2.12;;;;;;;22.51;100.00;102429.79;1777106;80;86126;-72
2021/06/12 19:13:03;;;;;;;3.98;2.00;;;;;;;22.51;100.00;102429.21;1962344;71;39634;-71
2021/06/12 19:15:33;;;;;;;2.25;1.90;;;;;;;22.52;100.00;102433.72;1880741;75;934458;-71
2021/06/12 19:18:03;;;;;;;3.55;1.95;;;;;;;22.53;100.00;102432.56;1880701;75;934694;-73
2021/06/12 19:20:33;;;;;;;3.05;2.30;;;;;;;22.39;100.00;102432.41;1880630;75;936555;-71
2021/06/12 19:23:04;;;;;;;2.12;1.75;;;;;;;22.41;100.00;102432.36;1880782;75;934766;-75
2021/06/12 19:25:34;;;;;;;2.33;1.92;;;;;;;22.44;100.00;102438.78;1880746;75;936646;-72
2021/06/12 19:28:04;;;;;;;3.53;2.00;;;;;;;22.23;100.00;102437.11;1880655;75;934715;-74
2021/06/12 19:30:34;;;;;;;2.72;2.27;;;;;;;22.13;100.00;102447.28;1880672;75;936557;-75
2021/06/12 19:33:05;;;;;;;3.00;2.00;;;;;;;22.12;100.00;102449.86;1880673;75;934680;-75
2021/06/12 19:35:39;;;;;;;2.10;1.87;;;;;;;21.95;100.00;102454.00;1880601;75;936559;-75
2021/06/12 19:38:27;;;;;;;4.50;2.10;;;;;;;21.95;100.00;102456.83;1880318;75;934771;-72
2021/06/12 19:40:47;;;;;;;3.77;2.07;;;;;;;21.84;100.00;102457.39;1878784;75;936781;-72
2021/06/12 19:43:18;;;;;;;3.13;2.30;;;;;;;21.59;100.00;102465.95;1868584;75;935617;-74
2021/06/12 19:48:42;;;;;;;3.93;2.30;;;;;;;21.48;100.00;102463.94;1832101;77;86227;-73
2021/06/12 19:54:08;;;;;;;4.77;2.20;;;;;;;21.32;100.00;102463.48;1922559;73;39572;-72
2021/06/12 19:59:33;;;;;;;4.22;2.20;;;;;;;21.22;100.00;102464.31;1904596;75;86956;-72
2021/06/12 20:04:58;;;;;;;3.57;1.93;;;;;;;21.04;100.00;102464.69;1762146;80;86315;-77
2021/06/12 20:10:25;;;;;;;2.27;1.90;;;;;;;21.14;100.00;102467.30;1944666;73;39569;-77
2021/06/12 20:16:10;;;;;;;3.10;2.20;;;;;;;21.09;100.00;102471.64;1831642;76;86375;-77
2021/06/12 20:21:35;;;;;;;2.00;1.80;;;;;;;20.97;100.00;102471.32;1877276;75;86288;-80
2021/06/12 20:27:01;;;;;;;2.73;2.40;;;;;;;20.90;100.00;102490.70;1949180;73;39799;-74
2021/06/12 20:32:27;;;;;;;2.73;2.20;;;;;;;20.66;100.00;102491.51;1944028;73;39399;-74
2021/06/12 20:37:51;;;;;;;3.80;2.60;;;;;;;20.39;100.00;102503.61;1947487;71;86483;-76
2021/06/12 20:43:16;;;;;;;2.50;2.30;;;;;;;20.32;100.00;102501.78;1933152;73;39778;-74
2021/06/12 20:48:40;;;;;;;3.37;2.87;;;;;;;20.25;100.00;102509.19;1882424;75;86341;-74
2021/06/12 20:54:05;;;;;;;4.17;2.53;;;;;;;20.24;100.00;102514.56;1949090;73;39459;-75
2021/06/12 20:59:30;;;;;;;2.83;2.23;;;;;;;20.28;100.00;102518.44;1925686;72;39751;-73
2021/06/12 21:04:54;;;;;;;3.17;2.17;;;;;;;20.13;100.00;102520.14;1947119;71;86160;-73
2021/06/12 21:10:21;;;;;;;5.17;2.67;;;;;;;19.97;100.00;102527.20;1916171;73;39677;-70
2021/06/12 21:15:46;;;;;;;5.13;2.63;;;;;;;20.09;100.00;102530.94;1832351;78;86333;-73
2021/06/12 21:21:29;;;;;;;3.10;2.70;;;;;;;19.87;100.00;102540.06;1951899;71;40345;-77
2021/06/12 21:26:56;;;;;;;3.63;2.67;;;;;;;19.75;100.00;102538.28;1869605;76;86374;-78
2021/06/12 21:32:23;;;;;;;14.47;12.10;;;;;;;19.27;100.00;102545.44;1930839;72;45203;-74
2021/06/12 21:37:50;;;;;;;3.50;3.10;;;;;;;19.58;100.00;102559.13;1837581;77;86579;-75
2021/06/12 21:43:14;;;;;;;3.90;3.50;;;;;;;18.96;100.00;102568.94;1946257;73;39599;-73
2021/06/12 21:48:37;;;;;;;5.10;3.33;;;;;;;19.06;100.00;102580.09;1891955;74;86083;-73
2021/06/12 21:54:01;;;;;;;6.83;3.87;;;;;;;19.21;100.00;102580.45;1949254;73;39535;-75
2021/06/12 21:59:26;;;;;;;4.63;4.23;;;;;;;19.36;100.00;102570.97;1912147;73;39614;-75
2021/06/12 22:04:50;;;;;;;6.67;5.97;;;;;;;19.00;100.00;102579.88;1825104;77;86271;-73
2021/06/12 22:10:18;;;;;;;8.90;6.33;;;;;;;19.08;100.00;102587.66;1933747;73;39495;-74
2021/06/12 22:15:42;;;;;;;10.80;8.40;;;;;;;19.04;100.00;102587.98;1829180;78;86333;-71
2021/06/12 22:21:18;;;;;;;7.67;6.30;;;;;;;18.65;100.00;102601.41;1948388;72;39540;-72
2021/06/12 22:27:00;;;;;;;7.83;6.60;;;;;;;18.64;100.00;102596.91;1869726;75;86230;-74
2021/06/12 22:32:44;;;;;;;7.67;5.97;;;;;;;18.86;100.00;102597.80;1875169;74;86253;-71
2021/06/12 22:38:08;;;;;;;7.97;5.80;;;;;;;18.79;100.00;102610.81;1921669;73;39651;-73
2021/06/12 22:43:53;;;;;;;7.13;6.40;;;;;;;18.82;100.00;102603.77;1882054;75;86544;-72
2021/06/12 22:49:15;;;;;;;7.63;5.80;;;;;;;18.48;100.00;102610.24;1898948;73;39792;-73
2021/06/12 22:54:59;;;;;;;6.93;5.13;;;;;;;18.18;100.00;102617.57;1867368;75;86729;-71
2021/06/12 23:00:28;;;;;;;6.63;5.77;;;;;;;18.23;100.00;102620.91;1914763;73;39601;-72
2021/06/12 23:05:52;;;;;;;8.77;5.93;;;;;;;18.10;100.00;102617.61;1782147;79;86423;-73
2021/06/12 23:11:16;;;;;;;8.83;5.50;;;;;;;18.09;100.00;102621.58;1945977;73;39630;-71
2021/06/12 23:16:40;;;;;;;9.07;6.10;;;;;;;17.93;100.00;102618.58;1892935;74;86526;-73
2021/06/12 23:22:27;;;;;;;7.37;6.03;;;;;;;17.83;100.00;102610.23;1981179;71;39495;-71
2021/06/12 23:27:51;;;;;;;11.13;7.40;;;;;;;17.81;100.00;102608.27;1947689;71;85636;-72
2021/06/12 23:33:18;;;;;;;9.43;6.30;;;;;;;17.78;100.00;102604.64;1945669;73;39528;-71
2021/06/12 23:38:49;;;;;;;8.67;6.40;;;;;;;18.03;100.00;102603.05;1882741;75;86658;-73
2021/06/12 23:44:14;;;;;;;7.77;6.00;;;;;;;17.74;100.00;102607.20;1946265;73;39594;-73
2021/06/12 23:49:57;;;;;;;6.97;6.23;;;;;;;17.54;100.00;102606.45;1909221;73;86486;-72
2021/06/12 23:55:21;;;;;;;6.57;5.70;;;;;;;17.38;100.00;102620.28;1914552;73;39477;-71
